createdAt,value
2018-05-29T00:00:43.118Z,70.30
2018-05-29T00:03:13.537Z,70.50
2018-05-29T00:05:42.793Z,70.00
2018-05-29T00:08:11.946Z,69.90
2018-05-29T00:10:41.933Z,70.70
2018-05-29T00:13:10.879Z,70.80
2018-05-29T00:15:39.506Z,70.80
2018-05-29T00:18:08.336Z,71.60
2018-05-29T00:20:36.746Z,71.40
2018-05-29T00:23:05.189Z,71.30
2018-05-29T00:25:33.832Z,72.00
2018-05-29T00:28:03.186Z,72.10
2018-05-29T00:30:31.811Z,72.00
2018-05-29T00:33:01.578Z,72.40
2018-05-29T00:35:30.011Z,72.60
2018-05-29T00:37:58.536Z,72.40
2018-05-29T00:40:27.166Z,72.90
2018-05-29T00:42:55.588Z,72.50
2018-05-29T00:45:23.742Z,73.20
2018-05-29T00:47:52.220Z,72.60
2018-05-29T00:50:21.060Z,72.90
2018-05-29T00:52:49.690Z,72.40
2018-05-29T00:55:30.124Z,73.10
2018-05-29T00:57:59.342Z,73.00
2018-05-29T01:00:27.541Z,73.00
2018-05-29T01:02:55.731Z,73.40
2018-05-29T01:05:24.958Z,73.10
2018-05-29T01:07:55.259Z,73.30
2018-05-29T01:10:23.686Z,73.30
2018-05-29T01:12:52.591Z,73.30
2018-05-29T01:15:20.792Z,73.50
2018-05-29T01:17:49.257Z,73.60
2018-05-29T01:20:17.783Z,73.60
2018-05-29T01:22:46.384Z,73.80
2018-05-29T01:25:14.604Z,73.90
2018-05-29T01:27:43.255Z,73.80
2018-05-29T01:30:11.885Z,73.80
2018-05-29T01:32:40.923Z,74.20
2018-05-29T01:35:09.564Z,74.20
2018-05-29T01:37:38.089Z,74.30
2018-05-29T01:40:07.243Z,74.80
2018-05-29T01:42:35.755Z,74.70
2018-05-29T01:45:04.607Z,74.60
2018-05-29T01:47:33.237Z,75.00
2018-05-29T01:50:04.273Z,75.20
2018-05-29T01:52:32.900Z,75.20
2018-05-29T01:55:01.391Z,75.30
2018-05-29T01:57:29.582Z,75.30
2018-05-29T01:59:58.023Z,76.10
2018-05-29T02:02:26.442Z,75.60
2018-05-29T02:04:54.902Z,76.30
2018-05-29T02:07:24.576Z,76.50
2018-05-29T02:09:52.727Z,77.30
2018-05-29T02:12:21.838Z,77.40
2018-05-29T02:14:50.813Z,77.70
2018-05-29T02:17:19.410Z,77.60
2018-05-29T02:19:47.832Z,78.00
2018-05-29T02:22:16.426Z,77.60
2018-05-29T02:24:44.623Z,78.40
2018-05-29T02:27:12.814Z,78.70
2018-05-29T02:29:41.832Z,78.20
2018-05-29T02:32:10.359Z,77.80
2018-05-29T02:34:38.881Z,77.80
2018-05-29T02:37:07.512Z,77.90
2018-05-29T02:39:35.667Z,78.00
2018-05-29T02:42:04.249Z,78.60
2018-05-29T02:44:32.634Z,78.30
2018-05-29T02:47:01.834Z,78.20
2018-05-29T02:49:30.455Z,78.20
2018-05-29T02:51:58.615Z,78.50
2018-05-29T02:54:27.703Z,78.60
2018-05-29T02:56:56.312Z,78.20
2018-05-29T02:59:24.974Z,78.20
2018-05-29T03:01:53.467Z,77.60
2018-05-29T03:04:21.657Z,78.40
2018-05-29T03:06:50.133Z,78.90
2018-05-29T03:09:18.871Z,78.40
2018-05-29T03:11:47.259Z,78.90
2018-05-29T03:14:15.455Z,79.40
2018-05-29T03:16:43.923Z,79.20
2018-05-29T03:19:12.657Z,79.50
2018-05-29T03:21:41.923Z,79.70
2018-05-29T03:24:10.112Z,79.10
2018-05-29T03:26:38.318Z,79.70
2018-05-29T03:29:06.970Z,80.00
2018-05-29T03:31:35.563Z,80.50
2018-05-29T03:34:03.759Z,80.30
2018-05-29T03:36:33.005Z,80.50
2018-05-29T03:39:01.336Z,80.20
2018-05-29T03:41:30.527Z,79.60
2018-05-29T03:44:01.258Z,80.30
2018-05-29T03:46:29.415Z,80.30
2018-05-29T03:48:57.998Z,80.70
2018-05-29T03:51:27.200Z,80.20
2018-05-29T03:53:57.243Z,80.70
2018-05-29T03:56:26.187Z,80.10
2018-05-29T03:58:55.336Z,80.10
2018-05-29T04:01:23.654Z,80.70
2018-05-29T04:03:53.015Z,81.60
2018-05-29T04:06:21.503Z,81.90
2018-05-29T04:08:50.367Z,81.90
2018-05-29T04:11:18.563Z,81.70
2018-05-29T04:13:47.186Z,81.90
2018-05-29T04:16:15.746Z,81.20
2018-05-29T04:18:44.169Z,80.30
2018-05-29T04:21:12.589Z,80.50
2018-05-29T04:23:40.747Z,81.20
2018-05-29T04:26:09.433Z,80.00
2018-05-29T04:28:37.962Z,80.60
2018-05-29T04:31:06.343Z,80.70
2018-05-29T04:33:34.543Z,80.40
2018-05-29T04:36:03.014Z,80.10
2018-05-29T04:38:31.179Z,80.30
2018-05-29T04:41:01.318Z,80.70
2018-05-29T04:43:29.948Z,80.70
2018-05-29T04:45:58.369Z,80.80
2018-05-29T04:48:26.658Z,81.20
2018-05-29T04:50:55.107Z,81.00
2018-05-29T04:53:23.262Z,81.00
2018-05-29T04:55:51.800Z,79.60
2018-05-29T04:58:20.779Z,80.40
2018-05-29T05:00:49.419Z,80.30
2018-05-29T05:03:17.585Z,78.10
2018-05-29T05:05:46.687Z,78.60
2018-05-29T05:08:15.205Z,78.10
2018-05-29T05:10:43.627Z,78.70
2018-05-29T05:13:12.048Z,78.20
2018-05-29T05:15:40.195Z,78.70
2018-05-29T05:18:09.258Z,78.30
2018-05-29T05:20:38.450Z,77.50
2018-05-29T05:23:06.950Z,77.40
2018-05-29T05:25:35.319Z,78.00
2018-05-29T05:28:04.343Z,78.00
2018-05-29T05:30:32.990Z,78.00
2018-05-29T05:33:02.540Z,77.70
2018-05-29T05:35:31.182Z,78.10
2018-05-29T05:37:59.334Z,76.90
2018-05-29T05:40:28.025Z,77.60
2018-05-29T05:42:56.203Z,76.80
2018-05-29T05:45:24.394Z,77.00
2018-05-29T05:47:53.079Z,76.80
2018-05-29T05:50:22.231Z,77.00
2018-05-29T05:52:52.106Z,75.50
2018-05-29T05:55:20.317Z,75.40
2018-05-29T05:57:48.853Z,75.30
2018-05-29T06:00:17.019Z,73.80
2018-05-29T06:02:45.207Z,74.50
2018-05-29T06:05:13.959Z,75.10
2018-05-29T06:07:42.058Z,76.00
2018-05-29T06:10:10.251Z,73.50
2018-05-29T06:12:39.211Z,73.50
2018-05-29T06:15:07.435Z,73.40
2018-05-29T06:17:36.530Z,72.60
2018-05-29T06:20:05.166Z,73.10
2018-05-29T06:22:33.318Z,72.50
2018-05-29T06:25:01.906Z,71.70
2018-05-29T06:27:30.535Z,71.40
2018-05-29T06:29:59.164Z,69.60
2018-05-29T06:32:27.407Z,71.20
2018-05-29T06:34:55.908Z,68.20
2018-05-29T06:37:24.054Z,68.20
2018-05-29T06:39:52.252Z,69.70
2018-05-29T06:42:20.506Z,67.40
2018-05-29T06:44:49.280Z,66.90
2018-05-29T06:47:17.435Z,67.30
2018-05-29T06:49:46.121Z,65.70
2018-05-29T06:52:14.279Z,64.50
2018-05-29T06:54:42.571Z,65.00
2018-05-29T06:57:11.799Z,64.70
2018-05-29T06:59:40.324Z,64.60
2018-05-29T07:02:08.955Z,62.60
2018-05-29T07:04:39.674Z,61.70
2018-05-29T07:07:09.100Z,62.50
2018-05-29T07:09:38.178Z,62.40
2018-05-29T07:12:07.142Z,61.90
2018-05-29T07:14:35.763Z,61.80
2018-05-29T07:17:04.567Z,61.30
2018-05-29T07:19:33.962Z,61.70
2018-05-29T07:22:03.015Z,60.70
2018-05-29T07:24:32.671Z,59.30
2018-05-29T07:27:01.317Z,59.30
2018-05-29T07:29:29.462Z,58.70
2018-05-29T07:31:58.563Z,58.20
2018-05-29T07:34:27.587Z,57.80
2018-05-29T07:36:56.610Z,58.20
2018-05-29T07:39:25.222Z,58.10
2018-05-29T07:41:53.687Z,57.60
2018-05-29T07:44:22.143Z,55.30
2018-05-29T07:46:50.290Z,55.50
2018-05-29T07:49:18.986Z,55.80
2018-05-29T07:51:48.138Z,56.60
2018-05-29T07:54:16.768Z,54.80
2018-05-29T07:56:46.129Z,54.60
2018-05-29T07:59:15.282Z,56.50
2018-05-29T08:01:43.442Z,56.70
2018-05-29T08:04:12.022Z,57.30
2018-05-29T08:06:41.174Z,56.60
2018-05-29T08:09:09.332Z,55.70
2018-05-29T08:11:38.015Z,55.50
2018-05-29T08:14:06.195Z,55.30
2018-05-29T08:16:35.056Z,55.90
2018-05-29T08:19:03.796Z,55.40
2018-05-29T08:21:31.983Z,55.90
2018-05-29T08:24:00.435Z,55.70
2018-05-29T08:26:28.856Z,55.30
2018-05-29T08:28:57.027Z,55.00
2018-05-29T08:31:25.214Z,54.50
2018-05-29T08:33:54.016Z,54.80
2018-05-29T08:36:23.160Z,55.10
2018-05-29T08:38:52.425Z,55.50
2018-05-29T08:41:20.950Z,55.40
2018-05-29T08:43:50.378Z,54.90
2018-05-29T08:46:19.677Z,54.50
2018-05-29T08:48:48.199Z,52.30
2018-05-29T08:51:17.275Z,52.80
2018-05-29T08:53:46.574Z,50.50
2018-05-29T08:56:15.137Z,50.50
2018-05-29T08:58:44.287Z,51.40
2018-05-29T09:01:13.438Z,51.40
2018-05-29T09:03:42.428Z,52.00
2018-05-29T09:06:10.974Z,52.00
2018-05-29T09:08:40.165Z,52.40
2018-05-29T09:11:09.321Z,53.40
2018-05-29T09:13:38.544Z,52.10
2018-05-29T09:16:06.996Z,52.10
2018-05-29T09:18:36.135Z,52.50
2018-05-29T09:21:04.331Z,52.10
2018-05-29T09:23:33.095Z,52.40
2018-05-29T09:26:02.307Z,52.10
2018-05-29T09:28:30.431Z,52.20
2018-05-29T09:30:58.986Z,51.30
2018-05-29T09:33:27.370Z,51.50
2018-05-29T09:35:55.933Z,50.70
2018-05-29T09:38:25.026Z,50.10
2018-05-29T09:40:53.506Z,50.90
2018-05-29T09:43:23.067Z,50.50
2018-05-29T09:45:52.378Z,48.20
2018-05-29T09:48:21.022Z,48.90
2018-05-29T09:50:50.429Z,47.60
2018-05-29T09:53:19.581Z,48.90
2018-05-29T09:55:48.018Z,46.90
2018-05-29T09:58:16.974Z,46.80
2018-05-29T10:00:46.398Z,46.80
2018-05-29T10:03:15.382Z,47.30
2018-05-29T10:05:44.286Z,47.20
2018-05-29T10:08:14.290Z,46.60
2018-05-29T10:10:42.813Z,46.60
2018-05-29T10:13:11.463Z,48.70
2018-05-29T10:15:41.013Z,47.20
2018-05-29T10:18:09.434Z,47.00
2018-05-29T10:20:38.575Z,46.70
2018-05-29T10:23:08.994Z,45.90
2018-05-29T10:25:37.623Z,45.80
2018-05-29T10:28:06.149Z,46.10
2018-05-29T10:30:34.539Z,47.40
2018-05-29T10:33:02.991Z,46.10
2018-05-29T10:35:31.583Z,45.60
2018-05-29T10:38:00.155Z,45.40
2018-05-29T10:40:28.343Z,45.90
2018-05-29T10:42:58.082Z,45.00
2018-05-29T10:45:26.735Z,45.00
2018-05-29T10:47:55.189Z,43.60
2018-05-29T10:50:23.350Z,44.20
2018-05-29T10:52:53.081Z,44.00
2018-05-29T10:55:21.258Z,44.00
2018-05-29T10:57:49.451Z,45.80
2018-05-29T11:00:18.135Z,45.70
2018-05-29T11:02:46.869Z,45.30
2018-05-29T11:05:15.031Z,44.50
2018-05-29T11:07:43.218Z,44.50
2018-05-29T11:10:11.415Z,43.20
2018-05-29T11:12:40.363Z,43.70
2018-05-29T11:15:10.226Z,43.80
2018-05-29T11:17:39.485Z,44.20
2018-05-29T11:20:08.064Z,44.00
2018-05-29T11:22:36.159Z,42.60
2018-05-29T11:25:04.747Z,43.30
2018-05-29T11:27:32.931Z,43.70
2018-05-29T11:30:01.380Z,43.90
2018-05-29T11:32:30.082Z,42.90
2018-05-29T11:34:59.905Z,42.90
2018-05-29T11:37:28.837Z,43.10
2018-05-29T11:39:57.468Z,41.70
2018-05-29T11:42:25.912Z,42.00
2018-05-29T11:44:54.051Z,42.00
2018-05-29T11:47:22.235Z,43.00
2018-05-29T11:49:51.455Z,41.70
2018-05-29T11:52:20.506Z,41.80
2018-05-29T11:54:49.045Z,41.80
2018-05-29T11:57:17.203Z,41.90
2018-05-29T11:59:46.182Z,41.10
2018-05-29T12:02:14.427Z,40.50
2018-05-29T12:04:44.324Z,41.00
2018-05-29T12:07:12.386Z,41.00
2018-05-29T12:09:41.751Z,39.30
2018-05-29T12:12:22.194Z,39.30
2018-05-29T12:14:50.415Z,41.40
2018-05-29T12:17:19.767Z,37.70
2018-05-29T12:19:47.922Z,38.20
2018-05-29T12:22:16.480Z,39.90
2018-05-29T12:24:45.136Z,41.50
2018-05-29T12:27:13.557Z,39.70
2018-05-29T12:29:41.978Z,41.20
2018-05-29T12:32:10.608Z,43.70
2018-05-29T12:34:39.030Z,42.30
2018-05-29T12:37:08.183Z,44.10
2018-05-29T12:39:37.544Z,42.20
2018-05-29T12:42:06.700Z,42.10
2018-05-29T12:44:34.886Z,41.90
2018-05-29T12:47:03.735Z,41.60
2018-05-29T12:49:33.109Z,42.30
2018-05-29T12:52:01.707Z,42.30
2018-05-29T12:54:30.579Z,42.30
2018-05-29T12:56:59.103Z,40.50
2018-05-29T12:59:27.258Z,39.10
2018-05-29T13:01:55.843Z,39.60
2018-05-29T13:04:24.006Z,39.20
2018-05-29T13:06:52.203Z,39.60
2018-05-29T13:09:20.764Z,39.80
2018-05-29T13:11:49.000Z,40.60
2018-05-29T13:14:17.607Z,41.30
2018-05-29T13:16:46.297Z,41.70
2018-05-29T13:19:14.419Z,43.00
2018-05-29T13:21:43.838Z,41.90
2018-05-29T13:24:12.978Z,41.50
2018-05-29T13:26:42.143Z,42.00
2018-05-29T13:29:11.095Z,42.70
2018-05-29T13:31:39.323Z,42.70
2018-05-29T13:34:08.963Z,45.20
2018-05-29T13:36:38.251Z,44.60
2018-05-29T13:39:07.607Z,45.90
2018-05-29T13:41:36.013Z,45.80
2018-05-29T13:44:04.434Z,44.60
2018-05-29T13:46:33.030Z,45.10
2018-05-29T13:49:01.347Z,45.70
2018-05-29T13:51:29.770Z,47.30
2018-05-29T13:53:58.174Z,48.80
2018-05-29T13:56:26.434Z,49.60
2018-05-29T13:58:54.962Z,50.40
2018-05-29T14:01:23.123Z,57.20
2018-05-29T14:03:51.315Z,99.90
2018-05-29T14:06:19.914Z,99.90
2018-05-29T14:08:48.961Z,99.90
2018-05-29T14:11:17.382Z,99.90
2018-05-29T14:13:46.083Z,99.90
2018-05-29T14:16:14.315Z,99.90
2018-05-29T14:18:42.963Z,99.90
2018-05-29T14:21:11.554Z,99.90
2018-05-29T14:23:40.507Z,99.90
2018-05-29T14:26:09.163Z,99.90
2018-05-29T14:28:37.323Z,99.90
2018-05-29T14:31:06.323Z,99.90
2018-05-29T14:33:34.845Z,99.90
2018-05-29T14:36:03.114Z,99.90
2018-05-29T14:38:31.652Z,99.90
2018-05-29T14:41:01.468Z,99.90
2018-05-29T14:43:30.828Z,99.90
2018-05-29T14:45:59.655Z,99.90
2018-05-29T14:48:27.846Z,99.90
2018-05-29T14:50:56.927Z,99.90
2018-05-29T14:53:26.289Z,99.90
2018-05-29T14:55:54.708Z,99.90
2018-05-29T14:58:22.877Z,99.90
2018-05-29T15:00:51.750Z,99.90
2018-05-29T15:03:19.962Z,99.90
2018-05-29T15:05:49.125Z,99.90
2018-05-29T15:08:18.069Z,99.90
2018-05-29T15:10:47.224Z,99.90
2018-05-29T15:13:15.852Z,99.90
2018-05-29T15:15:44.900Z,99.90
2018-05-29T15:18:13.948Z,99.90
2018-05-29T15:20:42.116Z,99.90
2018-05-29T15:23:10.332Z,99.90
2018-05-29T15:25:38.970Z,99.90
2018-05-29T15:28:07.163Z,99.90
2018-05-29T15:30:36.399Z,99.90
2018-05-29T15:33:04.998Z,99.90
2018-05-29T15:35:33.159Z,99.90
2018-05-29T15:38:02.351Z,99.90
2018-05-29T15:40:31.329Z,99.90
2018-05-29T15:43:00.002Z,99.90
2018-05-29T15:45:28.670Z,99.90
2018-05-29T15:47:56.870Z,99.90
2018-05-29T15:50:25.513Z,99.90
2018-05-29T15:52:54.730Z,99.90
2018-05-29T15:55:22.918Z,99.90
2018-05-29T15:57:52.448Z,99.90
2018-05-29T16:00:20.934Z,99.90
2018-05-29T16:02:49.131Z,99.90
2018-05-29T16:05:17.716Z,99.90
2018-05-29T16:07:46.619Z,99.90
2018-05-29T16:10:15.251Z,99.90
2018-05-29T16:12:44.671Z,99.90
2018-05-29T16:15:14.009Z,99.90
2018-05-29T16:17:42.379Z,99.90
2018-05-29T16:20:11.259Z,99.90
2018-05-29T16:22:39.899Z,99.90
2018-05-29T16:25:09.012Z,99.90
2018-05-29T16:27:37.577Z,99.90
2018-05-29T16:30:06.798Z,99.90
2018-05-29T16:32:34.997Z,99.90
2018-05-29T16:35:03.889Z,99.90
2018-05-29T16:37:32.412Z,99.90
2018-05-29T16:40:01.356Z,99.90
2018-05-29T16:42:29.950Z,99.90
2018-05-29T16:44:58.615Z,99.90
2018-05-29T16:47:28.591Z,99.90
2018-05-29T16:49:56.991Z,99.90
2018-05-29T16:52:25.831Z,99.90
2018-05-29T16:54:54.638Z,99.90
2018-05-29T16:57:22.791Z,99.90
2018-05-29T16:59:51.858Z,99.90
2018-05-29T17:02:20.894Z,99.90
2018-05-29T17:04:49.102Z,99.90
2018-05-29T17:07:17.749Z,99.90
2018-05-29T17:09:45.902Z,99.90
2018-05-29T17:12:15.531Z,99.90
2018-05-29T17:14:44.164Z,99.90
2018-05-29T17:17:12.687Z,99.90
2018-05-29T17:19:42.053Z,99.90
2018-05-29T17:22:10.211Z,99.90
2018-05-29T17:24:39.831Z,99.90
2018-05-29T17:27:07.995Z,99.90
2018-05-29T17:29:36.207Z,99.90
2018-05-29T17:32:04.891Z,99.90
2018-05-29T17:34:33.042Z,99.90
2018-05-29T17:37:01.259Z,99.90
2018-05-29T17:39:30.147Z,99.90
2018-05-29T17:41:59.095Z,99.90
2018-05-29T17:44:27.252Z,99.90
2018-05-29T17:46:56.111Z,99.90
2018-05-29T17:49:24.334Z,99.90
2018-05-29T17:51:52.988Z,99.90
2018-05-29T17:54:21.412Z,99.90
2018-05-29T17:56:50.039Z,99.90
2018-05-29T17:59:18.669Z,99.90
2018-05-29T18:01:47.300Z,99.90
2018-05-29T18:04:15.721Z,99.90
2018-05-29T18:06:43.882Z,99.90
2018-05-29T18:09:12.083Z,99.90
2018-05-29T18:11:40.307Z,99.90
2018-05-29T18:14:08.952Z,99.90
2018-05-29T18:16:37.034Z,99.90
2018-05-29T18:19:05.231Z,99.90
2018-05-29T18:21:33.938Z,99.90
2018-05-29T18:24:02.569Z,99.90
2018-05-29T18:26:30.723Z,99.90
2018-05-29T18:29:00.351Z,99.90
2018-05-29T18:31:28.877Z,99.90
2018-05-29T18:33:57.925Z,99.90
2018-05-29T18:36:26.451Z,99.90
2018-05-29T18:38:54.976Z,99.90
2018-05-29T18:41:24.315Z,99.90
2018-05-29T18:43:54.226Z,99.90
2018-05-29T18:46:22.850Z,99.90
2018-05-29T18:48:51.047Z,99.90
2018-05-29T18:51:19.602Z,99.90
2018-05-29T18:53:48.730Z,99.90
2018-05-29T18:56:19.043Z,99.90
2018-05-29T18:58:48.447Z,99.90
2018-05-29T19:01:17.034Z,99.90
2018-05-29T19:03:45.197Z,99.90
2018-05-29T19:06:13.877Z,99.90
2018-05-29T19:08:42.042Z,99.90
2018-05-29T19:11:10.933Z,99.90
2018-05-29T19:13:39.118Z,99.90
2018-05-29T19:16:07.563Z,99.90
2018-05-29T19:18:36.598Z,99.90
2018-05-29T19:21:05.658Z,99.90
2018-05-29T19:23:33.843Z,99.90
2018-05-29T19:26:02.035Z,99.90
2018-05-29T19:28:30.611Z,99.90
2018-05-29T19:30:58.771Z,99.90
2018-05-29T19:33:27.451Z,99.90
2018-05-29T19:35:56.597Z,99.90
2018-05-29T19:38:25.742Z,99.90
2018-05-29T19:40:54.177Z,99.90
2018-05-29T19:43:22.599Z,99.90
2018-05-29T19:45:50.878Z,99.90
2018-05-29T19:48:19.090Z,99.90
2018-05-29T19:50:48.177Z,99.90
2018-05-29T19:53:16.912Z,99.90
2018-05-29T19:55:45.095Z,99.90
2018-05-29T19:58:14.692Z,99.90
2018-05-29T20:00:43.472Z,99.90
2018-05-29T20:03:11.815Z,99.90
2018-05-29T20:05:40.687Z,99.90
2018-05-29T20:08:09.527Z,99.90
2018-05-29T20:10:37.682Z,99.90
2018-05-29T20:13:06.775Z,99.90
2018-05-29T20:15:34.975Z,99.90
2018-05-29T20:18:03.200Z,99.90
2018-05-29T20:20:31.603Z,99.90
2018-05-29T20:22:59.786Z,99.90
2018-05-29T20:25:28.475Z,99.90
2018-05-29T20:27:56.703Z,99.90
2018-05-29T20:30:25.287Z,99.90
2018-05-29T20:32:53.740Z,99.90
2018-05-29T20:35:21.903Z,99.90
2018-05-29T20:37:50.086Z,99.90
2018-05-29T20:40:19.487Z,99.90
2018-05-29T20:42:48.014Z,99.90
2018-05-29T20:45:17.190Z,99.90
2018-05-29T20:47:45.624Z,99.90
2018-05-29T20:50:14.871Z,99.90
2018-05-29T20:52:43.054Z,99.90
2018-05-29T20:55:11.686Z,99.90
2018-05-29T20:57:39.881Z,99.90
2018-05-29T21:00:08.462Z,99.90
2018-05-29T21:02:36.618Z,99.90
2018-05-29T21:05:05.514Z,99.90
2018-05-29T21:07:34.770Z,99.90
2018-05-29T21:10:03.915Z,99.90
2018-05-29T21:12:33.824Z,99.90
2018-05-29T21:15:03.797Z,99.90
2018-05-29T21:17:33.458Z,99.90
2018-05-29T21:20:02.099Z,99.90
2018-05-29T21:22:30.520Z,99.90
2018-05-29T21:24:59.852Z,99.90
2018-05-29T21:27:28.036Z,99.90
2018-05-29T21:29:56.516Z,99.90
2018-05-29T21:32:24.843Z,99.90
2018-05-29T21:34:54.495Z,99.90
2018-05-29T21:37:22.686Z,99.90
2018-05-29T21:39:50.911Z,99.90
2018-05-29T21:42:19.102Z,99.90
2018-05-29T21:44:47.671Z,99.90
2018-05-29T21:47:16.711Z,99.90
2018-05-29T21:49:45.130Z,99.90
2018-05-29T21:52:13.666Z,99.90
2018-05-29T21:54:42.167Z,99.90
2018-05-29T21:57:10.822Z,99.90
2018-05-29T21:59:39.975Z,99.90
2018-05-29T22:02:08.907Z,99.90
2018-05-29T22:04:37.098Z,99.90
2018-05-29T22:07:05.762Z,99.90
2018-05-29T22:09:34.913Z,99.90
2018-05-29T22:12:04.055Z,99.90
2018-05-29T22:14:33.207Z,99.90
2018-05-29T22:17:01.815Z,99.90
2018-05-29T22:19:30.478Z,99.90
2018-05-29T22:21:58.640Z,99.90
2018-05-29T22:24:26.859Z,99.90
2018-05-29T22:26:55.532Z,99.90
2018-05-29T22:29:24.163Z,99.90
2018-05-29T22:31:52.688Z,99.90
2018-05-29T22:34:20.843Z,99.90
2018-05-29T22:36:49.949Z,99.90
2018-05-29T22:39:18.180Z,99.90
2018-05-29T22:41:46.760Z,99.90
2018-05-29T22:44:15.840Z,99.90
2018-05-29T22:46:44.026Z,99.90
2018-05-29T22:49:13.019Z,99.90
2018-05-29T22:51:42.015Z,99.90
2018-05-29T22:54:10.782Z,99.90
2018-05-29T22:56:39.190Z,99.90
2018-05-29T22:59:09.594Z,99.90
2018-05-29T23:01:37.788Z,99.90
2018-05-29T23:04:06.345Z,99.90
2018-05-29T23:06:34.978Z,99.90
2018-05-29T23:09:03.499Z,99.90
2018-05-29T23:11:31.664Z,99.90
2018-05-29T23:13:59.878Z,99.90
2018-05-29T23:16:28.763Z,99.90
2018-05-29T23:18:57.054Z,99.90
2018-05-29T23:21:25.606Z,99.90
2018-05-29T23:23:54.111Z,99.90
2018-05-29T23:26:22.761Z,99.90
2018-05-29T23:28:51.286Z,99.90
2018-05-29T23:31:19.563Z,99.90
2018-05-29T23:33:48.751Z,99.90
2018-05-29T23:36:16.942Z,99.90
2018-05-29T23:38:45.808Z,99.90
2018-05-29T23:41:14.438Z,99.90
2018-05-29T23:43:42.598Z,99.90
2018-05-29T23:46:11.802Z,99.90
2018-05-29T23:48:40.084Z,99.90
2018-05-29T23:51:09.154Z,99.90
2018-05-29T23:53:39.144Z,99.90
2018-05-29T23:56:07.788Z,99.90
2018-05-29T23:58:36.613Z,99.90
